Time;durP1;ratioP1;P1;durP2;ratioP2;P2;SDS_P1;SDS_P2;PMS_P1;PMS_P2;Temp;Humidity;BMP_temperature;BMP_pressure;BME280_temperature;BME280_humidity;BME280_pressure;Samples;Min_cycle;Max_cycle;Signal;HPM_P1;HPM_P2
2022/07/03 00:00:13;;;;;;;1.70;0.80;;;23.20;60.40;;;;;;5034610;28;20052;-62
2022/07/03 00:02:39;;;;;;;2.55;0.70;;;23.20;60.40;;;;;;5034352;28;20117;-61
2022/07/03 00:05:05;;;;;;;1.38;0.52;;;23.20;60.40;;;;;;5033290;28;20481;-62
2022/07/03 00:07:31;;;;;;;1.80;0.70;;;23.20;60.40;;;;;;5034409;28;20072;-62
2022/07/03 00:09:56;;;;;;;1.50;0.52;;;23.20;60.50;;;;;;5032462;28;20072;-61
2022/07/03 00:12:22;;;;;;;3.05;0.60;;;23.20;60.50;;;;;;5033397;28;20045;-62
2022/07/03 00:14:48;;;;;;;2.05;0.60;;;23.20;60.50;;;;;;5032661;28;20045;-61
2022/07/03 00:17:14;;;;;;;1.90;0.68;;;23.20;60.50;;;;;;5031908;28;20045;-61
2022/07/03 00:19:39;;;;;;;2.70;0.80;;;23.20;60.50;;;;;;5034059;28;20111;-61
2022/07/03 00:22:05;;;;;;;1.88;0.60;;;23.20;60.50;;;;;;5033970;28;20045;-61
2022/07/03 00:24:42;;;;;;;2.13;0.60;;;23.20;60.50;;;;;;5032091;28;20446;-62
2022/07/03 00:27:09;;;;;;;1.83;0.83;;;23.20;60.50;;;;;;5033621;28;20061;-61
2022/07/03 00:29:37;;;;;;;1.73;0.63;;;23.20;60.50;;;;;;5034002;28;20312;-61
2022/07/03 00:32:04;;;;;;;2.08;0.60;;;23.20;60.50;;;;;;5032560;28;20098;-61
2022/07/03 00:34:29;;;;;;;3.28;0.80;;;23.20;60.60;;;;;;5016037;28;20049;-61
2022/07/03 00:36:55;;;;;;;1.55;0.60;;;23.20;60.60;;;;;;5015588;28;20043;-61
2022/07/03 00:39:21;;;;;;;1.70;0.60;;;23.20;60.60;;;;;;5031358;28;20132;-61
2022/07/03 00:41:46;;;;;;;2.13;0.75;;;23.20;60.60;;;;;;5033279;28;20059;-62
2022/07/03 00:44:12;;;;;;;2.85;0.80;;;23.20;60.60;;;;;;5033707;28;20095;-62
2022/07/03 00:46:39;;;;;;;3.10;0.90;;;23.20;60.70;;;;;;5032871;28;20120;-62
2022/07/03 00:49:04;;;;;;;2.25;0.73;;;23.20;60.70;;;;;;5033217;28;20464;-62
2022/07/03 00:51:30;;;;;;;1.45;0.50;;;23.20;60.70;;;;;;5032346;28;20073;-62
2022/07/03 00:53:57;;;;;;;1.65;0.60;;;23.20;60.70;;;;;;5031977;28;20042;-62
2022/07/03 00:56:29;;;;;;;3.35;0.80;;;23.20;60.70;;;;;;5032695;28;20037;-62
2022/07/03 00:58:56;;;;;;;2.45;0.90;;;23.20;60.70;;;;;;5032355;28;20494;-61
2022/07/03 01:01:23;;;;;;;1.65;0.50;;;23.20;60.70;;;;;;5031117;28;20044;-63
2022/07/03 01:04:08;;;;;;;2.95;0.60;;;23.20;60.70;;;;;;5031940;28;20049;-62
2022/07/03 01:06:37;;;;;;;3.58;1.08;;;23.20;60.70;;;;;;5016925;28;20080;-61
2022/07/03 01:09:03;;;;;;;2.67;0.60;;;23.20;60.80;;;;;;5031563;28;20050;-61
2022/07/03 01:11:41;;;;;;;1.05;0.60;;;23.10;60.70;;;;;;5032890;28;20060;-62
2022/07/03 01:14:07;;;;;;;1.88;0.60;;;23.20;60.80;;;;;;5032124;28;20462;-62
2022/07/03 01:16:57;;;;;;;3.70;0.60;;;23.10;60.80;;;;;;5033056;28;20049;-61
2022/07/03 01:19:41;;;;;;;1.65;0.70;;;23.10;60.80;;;;;;5033000;28;20045;-61
2022/07/03 01:22:33;;;;;;;2.83;0.60;;;23.10;60.80;;;;;;5032123;28;20050;-61
2022/07/03 01:25:26;;;;;;;1.33;0.60;;;23.20;60.90;;;;;;5031238;28;20143;-61
2022/07/03 01:28:03;;;;;;;1.17;0.60;;;23.20;60.90;;;;;;5031770;28;20889;-61
2022/07/03 01:30:32;;;;;;;2.33;0.90;;;23.10;60.80;;;;;;5033010;28;20117;-61
2022/07/03 01:33:25;;;;;;;0.88;0.57;;;23.10;60.80;;;;;;5032355;28;20548;-61
2022/07/03 01:36:05;;;;;;;1.42;0.60;;;23.10;60.90;;;;;;5031213;28;20068;-61
2022/07/03 01:38:37;;;;;;;2.65;0.60;;;23.10;60.90;;;;;;5032681;28;20045;-61
2022/07/03 01:41:05;;;;;;;1.58;0.63;;;23.10;60.90;;;;;;5032427;28;20045;-61
2022/07/03 01:43:33;;;;;;;1.67;0.65;;;23.10;60.90;;;;;;5032153;28;20045;-61
2022/07/03 01:46:01;;;;;;;1.55;0.60;;;23.10;60.90;;;;;;5032310;28;20041;-61
2022/07/03 01:48:27;;;;;;;0.93;0.50;;;23.10;60.90;;;;;;5032711;28;20049;-62
2022/07/03 01:50:53;;;;;;;2.47;0.60;;;23.10;61.60;;;;;;5030788;28;20437;-63
2022/07/03 01:53:18;;;;;;;1.77;0.75;;;23.10;61.00;;;;;;5031560;28;20125;-62
2022/07/03 01:55:44;;;;;;;3.05;0.70;;;23.10;61.00;;;;;;5030273;28;20037;-62
2022/07/03 01:58:10;;;;;;;2.17;0.63;;;23.10;61.00;;;;;;5031113;28;20053;-61
2022/07/03 02:00:49;;;;;;;2.13;0.68;;;23.10;61.00;;;;;;5032194;28;20042;-61
2022/07/03 02:03:26;;;;;;;1.30;0.63;;;23.10;61.00;;;;;;5030735;28;20085;-62
2022/07/03 02:06:06;;;;;;;2.28;0.60;;;23.10;61.00;;;;;;5030593;28;20052;-62
2022/07/03 02:08:49;;;;;;;1.45;0.63;;;23.10;61.00;;;;;;5031348;28;20543;-61
2022/07/03 02:11:16;;;;;;;1.20;0.70;;;23.10;61.00;;;;;;5030507;28;20132;-61
2022/07/03 02:14:11;;;;;;;1.93;0.97;;;23.10;61.10;;;;;;5032185;28;20046;-62
2022/07/03 02:16:51;;;;;;;0.77;0.50;;;23.10;61.00;;;;;;5043543;28;20057;-62
2022/07/03 02:19:17;;;;;;;1.90;0.70;;;23.10;61.10;;;;;;5036301;28;20044;-62
2022/07/03 02:21:51;;;;;;;1.85;0.63;;;23.10;61.10;;;;;;5034589;28;20041;-62
2022/07/03 02:24:20;;;;;;;1.27;0.70;;;23.10;61.10;;;;;;5035499;28;20042;-61
2022/07/03 02:26:53;;;;;;;1.35;0.70;;;23.00;61.10;;;;;;5034253;28;20570;-62
2022/07/03 02:29:19;;;;;;;0.88;0.57;;;23.10;61.20;;;;;;5034757;28;20576;-62
2022/07/03 02:31:45;;;;;;;2.03;0.70;;;23.00;61.10;;;;;;5033097;28;20529;-62
2022/07/03 02:34:16;;;;;;;1.83;0.70;;;23.00;61.10;;;;;;5035838;28;20049;-62
2022/07/03 02:36:45;;;;;;;2.22;0.85;;;23.00;61.10;;;;;;5035439;28;20404;-62
2022/07/03 02:39:14;;;;;;;2.08;0.70;;;23.10;61.20;;;;;;5016942;28;20493;-61
2022/07/03 02:41:43;;;;;;;1.45;0.70;;;23.00;61.10;;;;;;5033699;28;20128;-61
2022/07/03 02:44:29;;;;;;;2.03;0.57;;;23.10;61.20;;;;;;5033353;28;20045;-61
2022/07/03 02:47:03;;;;;;;1.40;0.80;;;23.00;61.10;;;;;;5033615;28;20037;-61
2022/07/03 02:49:50;;;;;;;2.08;0.80;;;23.00;61.20;;;;;;5035993;28;20037;-61
2022/07/03 02:52:30;;;;;;;1.07;0.70;;;23.00;61.20;;;;;;5035119;28;20454;-61
2022/07/03 02:54:59;;;;;;;1.27;0.60;;;23.00;61.20;;;;;;5035286;28;20315;-61
2022/07/03 02:57:25;;;;;;;1.63;0.70;;;23.00;61.20;;;;;;5035429;28;20042;-61
2022/07/03 02:59:56;;;;;;;1.77;0.65;;;23.00;61.20;;;;;;5033164;28;20047;-61
2022/07/03 03:02:22;;;;;;;1.02;0.68;;;23.00;61.30;;;;;;5035316;28;20501;-61
2022/07/03 03:04:59;;;;;;;1.05;0.60;;;23.00;61.20;;;;;;5034991;28;20537;-61
2022/07/03 03:07:34;;;;;;;1.08;0.70;;;23.00;61.30;;;;;;5034643;28;20042;-61
2022/07/03 03:09:59;;;;;;;1.88;0.70;;;23.00;61.30;;;;;;5018012;28;20061;-61
2022/07/03 03:12:36;;;;;;;1.15;0.60;;;23.00;61.30;;;;;;5033701;28;20040;-61
2022/07/03 03:15:03;;;;;;;2.38;0.80;;;23.00;61.30;;;;;;5034011;28;20387;-61
2022/07/03 03:17:36;;;;;;;1.40;0.70;;;23.00;61.30;;;;;;5034950;28;20045;-61
2022/07/03 03:20:01;;;;;;;2.10;0.70;;;23.00;61.30;;;;;;5033534;28;20428;-61
2022/07/03 03:23:04;;;;;;;1.50;0.70;;;23.00;61.30;;;;;;5033467;28;20529;-61
2022/07/03 03:25:30;;;;;;;1.33;0.70;;;23.00;61.30;;;;;;5034870;28;20049;-61
2022/07/03 03:27:55;;;;;;;2.17;0.75;;;23.00;61.30;;;;;;5032926;28;20409;-61
2022/07/03 03:30:22;;;;;;;1.13;0.65;;;23.00;61.30;;;;;;5035214;28;20132;-61
2022/07/03 03:32:48;;;;;;;1.00;0.60;;;23.00;61.30;;;;;;5033477;28;20128;-61
2022/07/03 03:35:13;;;;;;;1.60;0.60;;;23.00;61.30;;;;;;5033746;28;20053;-61
2022/07/03 03:37:39;;;;;;;1.92;0.70;;;23.00;61.30;;;;;;5034323;28;20088;-61
2022/07/03 03:40:05;;;;;;;1.10;0.60;;;23.00;61.40;;;;;;5032932;28;20038;-61
2022/07/03 03:42:30;;;;;;;1.42;0.80;;;23.00;61.40;;;;;;5034069;28;20037;-61
2022/07/03 03:44:56;;;;;;;3.10;0.73;;;23.00;61.40;;;;;;5034522;28;20401;-61
2022/07/03 03:47:21;;;;;;;2.83;0.82;;;22.90;61.40;;;;;;5034812;28;20115;-63
2022/07/03 03:49:47;;;;;;;2.83;0.80;;;23.00;61.70;;;;;;5033536;28;20042;-64
2022/07/03 03:52:12;;;;;;;1.60;0.80;;;23.00;61.80;;;;;;5033605;28;20041;-64
2022/07/03 03:54:38;;;;;;;2.20;1.10;;;23.00;61.90;;;;;;5033744;28;20113;-63
2022/07/03 03:57:20;;;;;;;2.13;1.20;;;23.00;61.90;;;;;;5033473;28;20053;-62
2022/07/03 03:59:46;;;;;;;2.92;1.10;;;23.00;61.80;;;;;;5033557;28;20061;-61
2022/07/03 04:02:12;;;;;;;2.05;1.10;;;23.00;61.70;;;;;;5034258;28;20060;-61
2022/07/03 04:04:38;;;;;;;2.47;1.10;;;23.00;61.60;;;;;;5033063;28;20041;-61
2022/07/03 04:07:04;;;;;;;1.95;1.15;;;23.00;61.60;;;;;;5032490;28;20057;-63
2022/07/03 04:09:29;;;;;;;5.05;1.20;;;23.00;61.60;;;;;;5031535;28;20041;-63
2022/07/03 04:11:55;;;;;;;3.53;1.40;;;23.00;61.60;;;;;;5033081;28;20088;-62
2022/07/03 04:14:21;;;;;;;3.33;1.55;;;23.00;61.60;;;;;;5033557;28;20049;-62
2022/07/03 04:16:46;;;;;;;2.00;1.30;;;23.00;61.60;;;;;;5032551;28;20470;-62
2022/07/03 04:19:12;;;;;;;2.00;1.23;;;23.00;61.60;;;;;;5031019;28;20401;-59
2022/07/03 04:21:37;;;;;;;4.50;1.60;;;23.00;61.50;;;;;;5034146;28;20037;-60
2022/07/03 04:24:03;;;;;;;3.70;1.30;;;23.00;61.40;;;;;;5030080;28;20072;-60
2022/07/03 04:26:29;;;;;;;3.10;1.67;;;23.00;61.30;;;;;;5033379;28;20061;-59
2022/07/03 04:28:54;;;;;;;7.30;1.65;;;23.00;61.30;;;;;;5033400;28;20046;-60
2022/07/03 04:31:20;;;;;;;3.88;1.30;;;23.00;61.30;;;;;;5032931;28;20042;-60
2022/07/03 04:33:45;;;;;;;3.15;1.30;;;23.00;61.40;;;;;;5033421;28;20120;-60
2022/07/03 04:36:11;;;;;;;2.22;1.42;;;23.00;61.40;;;;;;5033552;28;20386;-60
2022/07/03 04:38:36;;;;;;;1.75;1.10;;;23.00;61.40;;;;;;5032499;28;20038;-60
2022/07/03 04:41:02;;;;;;;2.10;1.17;;;23.00;61.40;;;;;;5033304;28;20056;-60
2022/07/03 04:43:27;;;;;;;2.25;1.25;;;23.00;61.40;;;;;;5033683;28;20505;-60
2022/07/03 04:45:53;;;;;;;5.00;1.30;;;23.10;61.50;;;;;;5032677;28;20501;-60
2022/07/03 04:48:18;;;;;;;2.58;1.58;;;23.10;61.50;;;;;;5033517;28;20073;-60
2022/07/03 04:50:44;;;;;;;5.20;1.40;;;23.10;61.50;;;;;;5033237;28;20052;-59
2022/07/03 04:53:09;;;;;;;1.98;1.20;;;23.10;61.60;;;;;;5032428;28;20091;-59
2022/07/03 04:55:35;;;;;;;2.85;1.40;;;23.10;61.60;;;;;;5031617;28;20057;-59
2022/07/03 04:58:00;;;;;;;2.10;1.27;;;23.10;61.70;;;;;;5033024;28;20053;-59
2022/07/03 05:00:26;;;;;;;2.22;1.25;;;23.10;61.80;;;;;;5032386;28;20508;-59
2022/07/03 05:02:52;;;;;;;2.38;1.20;;;23.10;61.70;;;;;;5032935;28;20045;-59
2022/07/03 05:05:17;;;;;;;2.30;1.20;;;23.10;61.90;;;;;;5033373;28;20048;-59
2022/07/03 05:07:44;;;;;;;1.92;1.30;;;23.10;61.80;;;;;;5032156;28;20048;-60
2022/07/03 05:10:09;;;;;;;2.33;1.00;;;23.10;61.80;;;;;;5032481;28;20485;-61
2022/07/03 05:12:35;;;;;;;2.97;1.20;;;23.10;61.80;;;;;;5031041;28;20183;-61
2022/07/03 05:15:01;;;;;;;2.03;1.38;;;23.10;61.70;;;;;;5031161;28;20049;-61
2022/07/03 05:17:26;;;;;;;2.10;1.20;;;23.10;62.30;;;;;;5032845;28;20041;-61
2022/07/03 05:22:36;;;;;;;3.13;1.50;;;23.00;61.60;;;;;;5032099;28;20046;-61
2022/07/03 05:25:02;;;;;;;5.07;1.48;;;23.00;61.50;;;;;;5030984;28;20407;-63
2022/07/03 05:27:27;;;;;;;3.85;1.80;;;23.00;61.50;;;;;;5031860;28;20111;-61
2022/07/03 05:29:53;;;;;;;3.90;1.90;;;23.00;61.60;;;;;;5032281;28;20045;-61
2022/07/03 05:32:18;;;;;;;5.78;2.17;;;23.00;61.50;;;;;;5032717;28;20044;-60
2022/07/03 05:34:44;;;;;;;8.18;2.95;;;23.00;61.60;;;;;;5031518;28;20060;-62
2022/07/03 05:37:09;;;;;;;8.65;2.60;;;23.00;61.70;;;;;;5031501;28;20049;-61
2022/07/03 05:39:37;;;;;;;6.10;2.42;;;23.00;61.80;;;;;;5030755;28;20060;-60
2022/07/03 05:42:03;;;;;;;7.53;2.28;;;23.00;61.80;;;;;;5030805;28;20048;-64
2022/07/03 05:44:29;;;;;;;7.65;2.58;;;23.10;61.90;;;;;;5030206;28;20049;-61
2022/07/03 05:46:54;;;;;;;5.80;3.05;;;23.10;62.00;;;;;;5031978;28;20038;-61
2022/07/03 05:49:20;;;;;;;7.47;3.05;;;23.10;62.10;;;;;;5030795;28;20129;-62
2022/07/03 05:51:45;;;;;;;5.55;2.90;;;23.10;62.10;;;;;;5031342;28;20041;-61
2022/07/03 05:54:11;;;;;;;6.88;2.20;;;23.10;62.20;;;;;;5032330;28;20045;-61
2022/07/03 05:56:37;;;;;;;6.43;2.47;;;23.10;62.20;;;;;;5031539;28;20045;-61
2022/07/03 05:59:02;;;;;;;5.90;2.40;;;23.20;62.30;;;;;;5032089;28;20120;-61
2022/07/03 06:01:28;;;;;;;5.13;2.60;;;23.10;62.30;;;;;;5031351;28;20103;-61
2022/07/03 06:03:53;;;;;;;9.50;2.63;;;23.20;62.50;;;;;;5031284;28;20052;-60
2022/07/03 06:06:19;;;;;;;12.70;2.30;;;23.20;62.50;;;;;;5032202;28;20045;-63
2022/07/03 06:08:44;;;;;;;9.07;2.40;;;23.20;62.60;;;;;;5031465;28;20037;-60
2022/07/03 06:11:10;;;;;;;8.65;2.28;;;23.20;62.60;;;;;;5030830;28;20049;-61
2022/07/03 06:13:35;;;;;;;6.05;2.30;;;23.30;62.50;;;;;;5032162;28;20092;-61
2022/07/03 06:16:01;;;;;;;5.07;2.40;;;23.30;62.40;;;;;;5030601;28;20144;-61
2022/07/03 06:18:26;;;;;;;6.82;2.85;;;23.30;62.40;;;;;;5032090;28;20038;-61
2022/07/03 06:20:53;;;;;;;4.38;1.77;;;23.30;62.30;;;;;;5031805;28;20049;-61
2022/07/03 06:23:18;;;;;;;6.47;2.05;;;23.30;62.30;;;;;;5031402;28;20132;-60
2022/07/03 06:25:44;;;;;;;7.80;2.13;;;23.30;62.20;;;;;;5031651;28;20140;-61
2022/07/03 06:28:09;;;;;;;5.78;1.90;;;23.30;62.20;;;;;;5031949;28;20049;-61
2022/07/03 06:30:35;;;;;;;6.70;2.35;;;23.30;62.10;;;;;;5031624;28;20057;-61
2022/07/03 06:33:00;;;;;;;7.57;2.55;;;23.40;62.10;;;;;;5032136;28;20096;-61
2022/07/03 06:35:26;;;;;;;4.90;1.98;;;23.40;62.00;;;;;;5031880;28;20049;-61
2022/07/03 06:37:51;;;;;;;4.78;2.00;;;23.40;62.00;;;;;;5029609;28;20064;-61
2022/07/03 06:40:17;;;;;;;4.47;1.90;;;23.40;62.00;;;;;;5032158;28;20045;-61
2022/07/03 06:42:42;;;;;;;6.20;1.90;;;23.40;61.90;;;;;;5031830;28;20038;-61
2022/07/03 06:45:08;;;;;;;4.93;2.10;;;23.40;61.90;;;;;;5031281;28;20096;-61
2022/07/03 06:47:38;;;;;;;6.25;2.10;;;23.40;61.80;;;;;;5030999;28;20068;-61
2022/07/03 06:50:04;;;;;;;5.38;2.05;;;23.40;61.80;;;;;;5031443;28;20120;-61
2022/07/03 06:52:30;;;;;;;4.28;1.75;;;23.40;61.70;;;;;;5031183;28;20386;-61
2022/07/03 06:54:55;;;;;;;6.72;2.15;;;23.40;61.70;;;;;;5030555;28;20132;-61
2022/07/03 06:57:21;;;;;;;8.35;2.47;;;23.40;61.60;;;;;;5030554;28;20073;-60
2022/07/03 06:59:48;;;;;;;5.97;1.80;;;23.40;61.60;;;;;;5030919;28;20084;-61
2022/07/03 07:02:13;;;;;;;5.28;1.75;;;23.40;61.50;;;;;;5033423;28;20085;-61
2022/07/03 07:04:39;;;;;;;5.05;1.63;;;23.40;61.50;;;;;;5035434;28;20073;-60
2022/07/03 07:07:04;;;;;;;2.80;1.55;;;23.40;61.40;;;;;;5034446;28;20037;-61
2022/07/03 07:09:30;;;;;;;5.05;1.90;;;23.40;61.40;;;;;;5035448;28;20037;-60
2022/07/03 07:11:55;;;;;;;5.82;1.90;;;23.40;61.40;;;;;;5033986;28;20099;-60
2022/07/03 07:14:21;;;;;;;3.45;1.50;;;23.40;61.30;;;;;;5034258;28;20049;-60
2022/07/03 07:16:47;;;;;;;4.07;1.38;;;23.40;61.30;;;;;;5034231;28;20136;-61
2022/07/03 07:19:12;;;;;;;3.28;1.45;;;23.40;61.20;;;;;;5034549;28;20533;-61
2022/07/03 07:21:38;;;;;;;4.30;1.60;;;23.50;61.20;;;;;;5034361;28;20049;-61
2022/07/03 07:24:04;;;;;;;5.93;1.42;;;23.40;61.20;;;;;;5034328;28;20084;-61
2022/07/03 07:26:29;;;;;;;3.92;1.45;;;23.50;61.20;;;;;;5034058;28;20096;-61
2022/07/03 07:28:55;;;;;;;4.50;1.52;;;23.50;61.20;;;;;;5034689;28;20046;-61
2022/07/03 07:31:20;;;;;;;6.95;1.73;;;23.50;61.20;;;;;;5034601;28;20072;-61
2022/07/03 07:33:46;;;;;;;4.45;1.42;;;23.50;61.10;;;;;;5033873;28;20038;-61
2022/07/03 07:36:11;;;;;;;5.57;1.83;;;23.60;61.10;;;;;;5034849;28;20080;-60
2022/07/03 07:38:37;;;;;;;3.50;1.38;;;23.60;61.10;;;;;;5035000;28;20061;-60
2022/07/03 07:41:02;;;;;;;3.40;1.25;;;23.60;61.10;;;;;;5033450;28;20099;-60
2022/07/03 07:43:28;;;;;;;2.95;1.40;;;23.60;61.10;;;;;;5034595;28;20468;-60
2022/07/03 07:45:53;;;;;;;5.53;1.45;;;23.50;60.90;;;;;;5034242;28;20732;-60
2022/07/03 07:48:19;;;;;;;4.68;1.40;;;23.60;61.00;;;;;;5033746;28;20124;-60
2022/07/03 07:50:44;;;;;;;3.10;1.30;;;23.60;61.00;;;;;;5033490;28;20080;-60
2022/07/03 07:53:10;;;;;;;3.45;1.38;;;23.50;60.90;;;;;;5034611;28;20076;-60
2022/07/03 07:55:36;;;;;;;3.15;1.30;;;23.50;60.90;;;;;;5033647;28;20132;-60
2022/07/03 07:58:01;;;;;;;3.78;1.25;;;23.50;60.90;;;;;;5034047;28;20494;-60
2022/07/03 08:00:27;;;;;;;3.55;1.30;;;23.60;60.90;;;;;;5034299;28;20053;-60
2022/07/03 08:05:36;;;;;;;2.83;1.33;;;23.50;60.80;;;;;;5034265;28;20460;-60
2022/07/03 08:08:06;;;;;;;4.65;1.33;;;23.50;60.90;;;;;;5034137;28;20485;-61
2022/07/03 08:10:49;;;;;;;4.43;1.20;;;23.50;61.00;;;;;;5033463;28;20088;-61
2022/07/03 08:13:16;;;;;;;3.35;1.50;;;23.50;60.90;;;;;;5014110;28;20105;-60
2022/07/03 08:15:42;;;;;;;6.22;1.60;;;23.50;60.90;;;;;;5013273;28;20119;-61
2022/07/03 08:18:08;;;;;;;3.17;1.15;;;23.50;60.90;;;;;;5014514;28;20488;-61
2022/07/03 08:20:34;;;;;;;3.35;1.50;;;23.50;60.90;;;;;;5013178;28;20433;-61
2022/07/03 08:23:00;;;;;;;3.20;1.38;;;23.50;61.00;;;;;;5012743;28;20056;-61
2022/07/03 08:25:25;;;;;;;3.83;1.40;;;23.50;60.90;;;;;;5013256;28;20058;-61
2022/07/03 08:27:51;;;;;;;2.33;1.05;;;23.60;61.00;;;;;;5013364;28;20505;-60
2022/07/03 08:30:17;;;;;;;4.05;1.38;;;23.50;60.90;;;;;;5011957;28;20045;-61
2022/07/03 08:32:55;;;;;;;3.00;1.20;;;23.50;60.90;;;;;;5013959;28;20049;-60
2022/07/03 08:35:21;;;;;;;;;;;23.60;61.00;;;;;;5014520;28;20057;-60
2022/07/03 08:37:47;;;;;;;3.97;1.20;;;23.50;60.90;;;;;;5032536;28;19921;-61
2022/07/03 08:40:16;;;;;;;2.53;1.40;;;23.60;61.00;;;;;;5033534;28;20080;-61
2022/07/03 08:42:58;;;;;;;3.20;1.60;;;23.60;60.90;;;;;;5033138;28;20501;-61
2022/07/03 08:45:24;;;;;;;2.83;1.10;;;23.60;60.90;;;;;;5032670;28;20056;-61
2022/07/03 08:47:50;;;;;;;2.17;1.08;;;23.60;60.80;;;;;;5032994;28;20095;-61
2022/07/03 08:50:19;;;;;;;3.53;1.10;;;23.60;60.80;;;;;;5033647;28;20163;-61
2022/07/03 08:52:45;;;;;;;2.70;1.42;;;23.60;60.80;;;;;;5032254;28;20056;-61
2022/07/03 08:55:13;;;;;;;2.30;1.10;;;23.60;61.30;;;;;;5033354;28;20046;-61
2022/07/03 08:57:40;;;;;;;2.25;1.10;;;23.70;60.80;;;;;;5033170;28;20045;-61
2022/07/03 09:00:08;;;;;;;4.07;0.97;;;23.70;60.70;;;;;;5032836;28;20045;-61
2022/07/03 09:02:33;;;;;;;3.80;1.20;;;23.70;60.60;;;;;;5032735;28;20091;-61
2022/07/03 09:04:59;;;;;;;4.68;1.33;;;23.70;60.60;;;;;;5032064;28;20053;-61
2022/07/03 09:07:31;;;;;;;2.67;1.30;;;23.70;60.60;;;;;;5032946;28;20128;-60
2022/07/03 09:09:56;;;;;;;4.50;1.27;;;23.70;60.60;;;;;;5032135;28;20115;-61
2022/07/03 09:12:22;;;;;;;4.38;1.08;;;23.70;60.60;;;;;;5032383;28;20045;-61
2022/07/03 09:14:47;;;;;;;2.78;0.98;;;23.70;60.60;;;;;;5032772;28;20052;-61
2022/07/03 09:17:13;;;;;;;3.83;1.10;;;23.70;60.50;;;;;;5032682;28;20438;-61
2022/07/03 09:19:47;;;;;;;3.40;1.20;;;23.70;60.50;;;;;;5030972;28;20144;-61
2022/07/03 09:22:26;;;;;;;2.72;1.50;;;23.70;60.50;;;;;;5032547;28;20091;-61
2022/07/03 09:25:13;;;;;;;2.65;1.02;;;23.70;60.50;;;;;;5032072;28;20073;-60
2022/07/03 09:27:49;;;;;;;2.97;1.10;;;23.70;60.40;;;;;;5032097;28;20053;-61
2022/07/03 09:30:15;;;;;;;1.55;0.90;;;23.80;60.40;;;;;;5032847;28;20125;-61
2022/07/03 09:32:41;;;;;;;4.13;0.90;;;23.80;60.40;;;;;;5032303;28;20129;-60
2022/07/03 09:35:27;;;;;;;3.95;0.90;;;23.80;60.40;;;;;;5031832;28;20045;-60
2022/07/03 09:37:59;;;;;;;2.72;1.10;;;23.80;60.30;;;;;;5031318;28;20379;-61
2022/07/03 09:40:26;;;;;;;1.73;1.00;;;23.80;60.20;;;;;;5031901;28;20045;-61
2022/07/03 09:42:59;;;;;;;1.90;1.02;;;23.90;60.30;;;;;;5032511;28;20041;-60
2022/07/03 09:45:25;;;;;;;1.80;0.85;;;23.90;60.20;;;;;;5032658;28;20049;-61
2022/07/03 09:47:50;;;;;;;1.17;0.80;;;23.90;60.20;;;;;;5030597;28;20041;-61
2022/07/03 09:50:16;;;;;;;3.63;1.00;;;23.90;60.10;;;;;;5030928;28;20042;-61
2022/07/03 09:52:43;;;;;;;2.03;1.02;;;23.90;60.10;;;;;;5032154;28;20084;-60
2022/07/03 09:55:08;;;;;;;5.00;1.05;;;23.90;60.10;;;;;;5031756;28;20041;-60
2022/07/03 09:57:34;;;;;;;2.75;1.02;;;23.90;60.00;;;;;;5031307;28;20107;-60
2022/07/03 10:00:11;;;;;;;2.80;1.25;;;23.90;60.10;;;;;;5032371;28;20555;-60
2022/07/03 10:02:50;;;;;;;1.90;0.73;;;23.90;60.00;;;;;;5030789;28;20049;-60
2022/07/03 10:05:15;;;;;;;1.77;0.90;;;23.90;60.10;;;;;;5031533;28;20042;-60
2022/07/03 10:07:54;;;;;;;2.63;0.90;;;23.90;60.10;;;;;;5032113;28;20053;-60
2022/07/03 10:10:20;;;;;;;2.33;0.80;;;23.90;60.10;;;;;;5031412;28;20493;-60
2022/07/03 10:12:47;;;;;;;2.35;1.08;;;23.80;60.10;;;;;;5032130;28;20118;-60
2022/07/03 10:15:13;;;;;;;2.20;1.10;;;23.90;60.10;;;;;;5031684;28;20049;-61
2022/07/03 10:17:39;;;;;;;3.28;1.00;;;23.90;60.10;;;;;;5031307;28;20409;-60
2022/07/03 10:20:04;;;;;;;1.65;0.85;;;23.90;60.10;;;;;;5031060;28;20470;-61
2022/07/03 10:22:30;;;;;;;1.55;0.77;;;23.90;60.10;;;;;;5031387;28;20122;-60
2022/07/03 10:24:55;;;;;;;1.67;0.80;;;23.90;60.10;;;;;;5030412;28;20073;-61
2022/07/03 10:27:21;;;;;;;3.80;1.00;;;23.90;60.00;;;;;;5030630;28;20088;-60
2022/07/03 10:29:46;;;;;;;2.85;1.05;;;23.90;60.00;;;;;;5046829;28;20096;-61
2022/07/03 10:32:12;;;;;;;1.88;0.80;;;23.90;60.00;;;;;;5032335;28;20125;-61
2022/07/03 10:34:38;;;;;;;2.47;0.90;;;23.90;60.00;;;;;;5030857;28;20124;-60
2022/07/03 10:37:03;;;;;;;1.50;0.73;;;23.90;60.00;;;;;;5032827;28;20136;-60
2022/07/03 10:39:44;;;;;;;1.00;0.70;;;23.90;60.00;;;;;;5036143;28;20048;-61
2022/07/03 10:45:05;;;;;;;2.50;0.80;;;23.90;59.90;;;;;;5034075;28;20077;-61
2022/07/03 10:47:47;;;;;;;1.58;0.75;;;23.90;59.90;;;;;;5035548;28;20045;-61
2022/07/03 10:50:13;;;;;;;2.00;0.75;;;24.00;59.90;;;;;;5035433;28;20045;-61
2022/07/03 10:52:39;;;;;;;1.70;0.80;;;23.90;59.90;;;;;;5035534;28;20481;-60
2022/07/03 10:55:06;;;;;;;2.15;0.90;;;23.90;59.80;;;;;;5035418;28;20099;-61
2022/07/03 10:57:32;;;;;;;1.48;0.70;;;23.90;59.70;;;;;;5034758;28;20054;-61
2022/07/03 10:59:58;;;;;;;1.48;0.70;;;24.00;59.70;;;;;;5034694;28;20053;-60
2022/07/03 11:02:33;;;;;;;1.35;0.70;;;24.00;59.70;;;;;;5035319;28;20056;-61
2022/07/03 11:05:02;;;;;;;1.25;0.70;;;24.00;59.60;;;;;;5033828;28;20474;-61
2022/07/03 11:07:49;;;;;;;3.20;0.70;;;24.00;59.50;;;;;;5034933;28;20052;-61
2022/07/03 11:10:15;;;;;;;1.58;0.90;;;24.00;59.40;;;;;;5034959;28;20049;-61
2022/07/03 11:13:03;;;;;;;2.03;0.77;;;24.00;59.40;;;;;;5034077;28;20047;-61
2022/07/03 11:15:38;;;;;;;1.73;0.73;;;24.00;59.30;;;;;;5034691;28;20168;-61
2022/07/03 11:18:07;;;;;;;1.83;0.80;;;24.00;59.30;;;;;;5035080;28;20038;-60
2022/07/03 11:20:41;;;;;;;1.83;0.98;;;24.00;59.20;;;;;;5034373;28;20106;-60
2022/07/03 11:23:13;;;;;;;1.92;0.75;;;24.00;59.20;;;;;;5035057;28;20045;-60
2022/07/03 11:25:39;;;;;;;1.73;0.73;;;24.00;59.10;;;;;;5033962;28;20076;-61
2022/07/03 11:28:05;;;;;;;1.95;0.88;;;24.00;59.10;;;;;;5035101;28;20236;-61
2022/07/03 11:30:31;;;;;;;2.25;0.77;;;24.10;59.10;;;;;;5034858;28;20049;-60
2022/07/03 11:32:57;;;;;;;2.38;0.90;;;24.10;59.00;;;;;;5033861;28;20033;-60
2022/07/03 11:35:46;;;;;;;2.15;0.75;;;24.10;59.00;;;;;;5034925;28;20443;-60
2022/07/03 11:38:15;;;;;;;2.17;0.70;;;24.10;59.10;;;;;;5034994;28;20490;-60
2022/07/03 11:40:42;;;;;;;2.10;0.60;;;24.10;59.00;;;;;;5032427;28;20397;-60
2022/07/03 11:43:08;;;;;;;1.60;0.60;;;24.10;59.00;;;;;;5035001;28;20052;-60
2022/07/03 11:45:33;;;;;;;0.82;0.60;;;24.10;59.00;;;;;;5034692;28;20049;-60
2022/07/03 11:47:59;;;;;;;2.40;0.90;;;24.10;59.00;;;;;;5031002;28;20366;-61
2022/07/03 11:50:42;;;;;;;2.28;0.73;;;24.20;59.00;;;;;;5034917;28;20053;-61
2022/07/03 11:53:18;;;;;;;1.20;0.77;;;24.20;59.00;;;;;;5034678;28;20041;-60
2022/07/03 11:56:11;;;;;;;1.48;0.63;;;24.20;59.00;;;;;;5033427;28;20041;-60
2022/07/03 11:58:40;;;;;;;1.63;0.80;;;24.20;58.90;;;;;;5033261;28;20100;-60
2022/07/03 12:01:06;;;;;;;2.17;0.70;;;24.20;58.90;;;;;;5033763;28;20547;-60
2022/07/03 12:03:32;;;;;;;1.08;0.70;;;24.20;58.80;;;;;;5032554;28;20041;-61
2022/07/03 12:05:58;;;;;;;1.05;0.50;;;24.20;58.80;;;;;;5034086;28;20112;-60
2022/07/03 12:08:33;;;;;;;0.68;0.60;;;24.20;58.80;;;;;;5033465;28;20489;-60
2022/07/03 12:11:02;;;;;;;1.13;0.65;;;24.20;58.80;;;;;;5033006;28;20042;-61
2022/07/03 12:13:30;;;;;;;1.48;0.55;;;24.20;58.70;;;;;;5034166;28;20126;-60
2022/07/03 12:16:10;;;;;;;3.53;0.55;;;24.20;58.80;;;;;;5032968;28;20068;-60
2022/07/03 12:18:46;;;;;;;0.85;0.50;;;24.20;58.70;;;;;;5033329;28;20413;-60
2022/07/03 12:21:12;;;;;;;2.13;0.63;;;24.20;58.80;;;;;;5033969;28;20056;-60
2022/07/03 12:23:52;;;;;;;1.23;0.75;;;24.20;58.70;;;;;;5032066;28;20094;-60
2022/07/03 12:26:33;;;;;;;1.63;0.60;;;24.20;58.70;;;;;;5033244;28;20068;-61
2022/07/03 12:29:00;;;;;;;1.10;0.50;;;24.20;58.70;;;;;;5032691;28;20056;-60
2022/07/03 12:31:26;;;;;;;2.87;0.63;;;24.20;58.70;;;;;;5033863;28;20057;-60
2022/07/03 12:33:52;;;;;;;1.13;0.77;;;24.20;58.70;;;;;;5032202;28;20045;-60
2022/07/03 12:36:18;;;;;;;1.85;0.60;;;24.20;58.70;;;;;;5033254;28;20042;-60
2022/07/03 12:38:47;;;;;;;1.60;0.55;;;24.30;58.70;;;;;;5033510;28;20048;-60
2022/07/03 12:41:13;;;;;;;1.10;0.60;;;24.30;58.70;;;;;;5033723;28;20048;-60
2022/07/03 12:43:39;;;;;;;1.23;0.60;;;24.30;58.70;;;;;;5031708;28;20045;-60
2022/07/03 12:46:24;;;;;;;1.05;0.50;;;24.20;58.70;;;;;;5033372;28;20041;-60
2022/07/03 12:48:51;;;;;;;1.23;0.60;;;24.20;58.60;;;;;;5032867;28;20084;-60
2022/07/03 12:51:39;;;;;;;1.20;0.52;;;24.30;58.60;;;;;;5031773;28;20163;-60
2022/07/03 12:54:14;;;;;;;1.33;0.55;;;24.30;58.60;;;;;;5033422;28;20056;-60
2022/07/03 12:56:41;;;;;;;1.77;0.50;;;24.30;58.60;;;;;;5031257;28;22219;-60
2022/07/03 12:59:19;;;;;;;2.75;0.60;;;24.30;58.60;;;;;;5032361;28;20037;-60
2022/07/03 13:01:45;;;;;;;1.20;0.65;;;24.20;58.50;;;;;;5033145;28;20037;-60
2022/07/03 13:04:14;;;;;;;1.35;0.45;;;24.30;58.50;;;;;;5032521;28;20548;-60